sensor_id;sensor_type;location;lat;lon;timestamp;pressure;altitude;pressure_sealevel;temperature;humidity
69842;BME280;57138;51.326;-0.068;2023-07-29T00:00:38;98817.75;;;16.96;87.43
69842;BME280;57138;51.326;-0.068;2023-07-29T00:03:04;98830.44;;;17.01;87.15
69842;BME280;57138;51.326;-0.068;2023-07-29T00:05:30;98806.59;;;16.82;87.55
69842;BME280;57138;51.326;-0.068;2023-07-29T00:07:56;98830.69;;;16.94;88.04
69842;BME280;57138;51.326;-0.068;2023-07-29T00:10:21;98808.75;;;16.85;88.37
69842;BME280;57138;51.326;-0.068;2023-07-29T00:12:46;98814.94;;;16.81;89.11
69842;BME280;57138;51.326;-0.068;2023-07-29T00:15:12;98817.91;;;16.79;88.53
69842;BME280;57138;51.326;-0.068;2023-07-29T00:17:37;98836.84;;;16.84;88.68
69842;BME280;57138;51.326;-0.068;2023-07-29T00:20:03;98825.22;;;16.84;88.70
69842;BME280;57138;51.326;-0.068;2023-07-29T00:22:30;98831.19;;;16.86;88.66
69842;BME280;57138;51.326;-0.068;2023-07-29T00:24:55;98828.22;;;16.87;88.97
69842;BME280;57138;51.326;-0.068;2023-07-29T00:27:22;98814.66;;;16.77;88.92
69842;BME280;57138;51.326;-0.068;2023-07-29T00:29:47;98823.09;;;16.86;88.62
69842;BME280;57138;51.326;-0.068;2023-07-29T00:32:13;98825.25;;;16.89;88.09
69842;BME280;57138;51.326;-0.068;2023-07-29T00:34:43;98842.28;;;16.89;88.47
69842;BME280;57138;51.326;-0.068;2023-07-29T00:37:11;98810.59;;;16.75;87.57
69842;BME280;57138;51.326;-0.068;2023-07-29T00:39:37;98841.41;;;16.84;87.33
69842;BME280;57138;51.326;-0.068;2023-07-29T00:42:03;98829.31;;;16.86;87.23
69842;BME280;57138;51.326;-0.068;2023-07-29T00:44:29;98806.00;;;16.70;86.73
69842;BME280;57138;51.326;-0.068;2023-07-29T00:46:54;98820.06;;;16.77;85.83
69842;BME280;57138;51.326;-0.068;2023-07-29T00:49:20;98825.47;;;16.77;85.59
69842;BME280;57138;51.326;-0.068;2023-07-29T00:51:47;98842.25;;;16.84;85.47
69842;BME280;57138;51.326;-0.068;2023-07-29T00:54:13;98831.41;;;16.74;85.12
69842;BME280;57138;51.326;-0.068;2023-07-29T00:56:39;98832.50;;;16.78;85.22
69842;BME280;57138;51.326;-0.068;2023-07-29T00:59:05;98842.25;;;16.84;85.07
69842;BME280;57138;51.326;-0.068;2023-07-29T01:01:31;98838.97;;;16.82;84.10
69842;BME280;57138;51.326;-0.068;2023-07-29T01:03:57;98829.50;;;16.75;84.59
69842;BME280;57138;51.326;-0.068;2023-07-29T01:17:54;98812.97;;;16.56;83.79
69842;BME280;57138;51.326;-0.068;2023-07-29T01:20:19;98821.06;;;16.61;83.28
69842;BME280;57138;51.326;-0.068;2023-07-29T01:22:46;98825.38;;;16.57;83.75
69842;BME280;57138;51.326;-0.068;2023-07-29T01:25:13;98829.66;;;16.52;83.91
69842;BME280;57138;51.326;-0.068;2023-07-29T01:27:40;98803.72;;;16.41;83.81
69842;BME280;57138;51.326;-0.068;2023-07-29T01:30:06;98815.63;;;16.50;83.39
69842;BME280;57138;51.326;-0.068;2023-07-29T01:35:13;98799.38;;;16.35;83.29
69842;BME280;57138;51.326;-0.068;2023-07-29T01:37:41;98807.22;;;16.42;83.44
69842;BME280;57138;51.326;-0.068;2023-07-29T01:40:08;98809.63;;;16.38;83.55
69842;BME280;57138;51.326;-0.068;2023-07-29T01:42:34;98806.63;;;16.34;84.02
69842;BME280;57138;51.326;-0.068;2023-07-29T01:45:00;98807.97;;;16.32;84.18
69842;BME280;57138;51.326;-0.068;2023-07-29T01:47:26;98801.47;;;16.28;83.86
69842;BME280;57138;51.326;-0.068;2023-07-29T01:49:51;98769.00;;;16.07;83.99
69842;BME280;57138;51.326;-0.068;2023-07-29T01:52:16;98781.69;;;16.12;83.94
69842;BME280;57138;51.326;-0.068;2023-07-29T01:54:42;98789.00;;;16.16;83.92
69842;BME280;57138;51.326;-0.068;2023-07-29T01:57:08;98791.16;;;16.14;84.04
69842;BME280;57138;51.326;-0.068;2023-07-29T01:59:33;98800.84;;;16.15;84.22
69842;BME280;57138;51.326;-0.068;2023-07-29T02:01:58;98808.94;;;16.15;84.70
69842;BME280;57138;51.326;-0.068;2023-07-29T02:04:24;98818.66;;;16.16;84.26
69842;BME280;57138;51.326;-0.068;2023-07-29T02:06:49;98808.88;;;16.05;84.56
69842;BME280;57138;51.326;-0.068;2023-07-29T02:09:14;98807.25;;;16.04;85.08
69842;BME280;57138;51.326;-0.068;2023-07-29T02:11:40;98803.75;;;16.04;84.59
69842;BME280;57138;51.326;-0.068;2023-07-29T02:14:05;98806.72;;;16.02;84.74
69842;BME280;57138;51.326;-0.068;2023-07-29T02:16:31;98772.88;;;15.84;85.40
69842;BME280;57138;51.326;-0.068;2023-07-29T02:18:57;98814.81;;;16.07;85.02
69842;BME280;57138;51.326;-0.068;2023-07-29T02:21:23;98806.19;;;16.05;85.38
69842;BME280;57138;51.326;-0.068;2023-07-29T02:23:48;98800.19;;;15.98;85.59
69842;BME280;57138;51.326;-0.068;2023-07-29T02:26:14;98809.94;;;15.99;85.46
69842;BME280;57138;51.326;-0.068;2023-07-29T02:28:39;98799.66;;;15.96;86.02
69842;BME280;57138;51.326;-0.068;2023-07-29T02:31:15;98822.13;;;16.07;86.12
69842;BME280;57138;51.326;-0.068;2023-07-29T02:33:42;98786.13;;;15.91;86.09
69842;BME280;57138;51.326;-0.068;2023-07-29T02:36:07;98814.28;;;16.05;86.21
69842;BME280;57138;51.326;-0.068;2023-07-29T02:38:33;98804.00;;;16.02;86.34
69842;BME280;57138;51.326;-0.068;2023-07-29T02:40:58;98794.81;;;15.98;86.39
69842;BME280;57138;51.326;-0.068;2023-07-29T02:43:23;98808.03;;;15.99;86.86
69842;BME280;57138;51.326;-0.068;2023-07-29T02:45:49;98788.78;;;15.86;87.06
69842;BME280;57138;51.326;-0.068;2023-07-29T02:48:14;98762.81;;;15.74;87.05
69842;BME280;57138;51.326;-0.068;2023-07-29T02:50:40;98788.03;;;15.95;87.20
69842;BME280;57138;51.326;-0.068;2023-07-29T02:53:05;98779.16;;;15.95;87.54
69842;BME280;57138;51.326;-0.068;2023-07-29T02:55:30;98774.78;;;15.89;87.23
69842;BME280;57138;51.326;-0.068;2023-07-29T02:57:56;98787.84;;;16.02;87.22
69842;BME280;57138;51.326;-0.068;2023-07-29T03:00:21;98777.00;;;15.97;87.27
69842;BME280;57138;51.326;-0.068;2023-07-29T03:02:47;98791.09;;;16.04;87.23
69842;BME280;57138;51.326;-0.068;2023-07-29T03:05:12;98774.03;;;15.98;87.47
69842;BME280;57138;51.326;-0.068;2023-07-29T03:07:37;98762.97;;;15.90;87.32
69842;BME280;57138;51.326;-0.068;2023-07-29T03:10:03;98773.50;;;15.96;87.63
69842;BME280;57138;51.326;-0.068;2023-07-29T03:12:28;98772.69;;;15.96;87.62
69842;BME280;57138;51.326;-0.068;2023-07-29T03:14:54;98771.88;;;15.95;88.04
69842;BME280;57138;51.326;-0.068;2023-07-29T03:17:19;98770.56;;;15.98;87.75
69842;BME280;57138;51.326;-0.068;2023-07-29T03:19:45;98765.69;;;15.95;88.07
69842;BME280;57138;51.326;-0.068;2023-07-29T03:22:10;98775.94;;;15.98;88.26
69842;BME280;57138;51.326;-0.068;2023-07-29T03:24:36;98788.88;;;15.96;88.00
69842;BME280;57138;51.326;-0.068;2023-07-29T03:27:01;98787.25;;;15.95;88.84
69842;BME280;57138;51.326;-0.068;2023-07-29T03:29:26;98756.44;;;15.86;88.33
69842;BME280;57138;51.326;-0.068;2023-07-29T03:31:52;98735.84;;;15.69;88.82
69842;BME280;57138;51.326;-0.068;2023-07-29T03:34:17;98764.53;;;15.86;88.68
69842;BME280;57138;51.326;-0.068;2023-07-29T03:36:42;98769.63;;;15.82;88.95
69842;BME280;57138;51.326;-0.068;2023-07-29T03:39:08;98776.38;;;15.85;88.88
69842;BME280;57138;51.326;-0.068;2023-07-29T03:41:33;98771.50;;;15.81;88.84
69842;BME280;57138;51.326;-0.068;2023-07-29T03:43:58;98783.41;;;15.86;89.28
69842;BME280;57138;51.326;-0.068;2023-07-29T03:46:24;98790.44;;;15.87;89.37
69842;BME280;57138;51.326;-0.068;2023-07-29T03:48:50;98791.75;;;15.84;89.96
69842;BME280;57138;51.326;-0.068;2023-07-29T03:51:15;98772.53;;;15.75;89.74
69842;BME280;57138;51.326;-0.068;2023-07-29T03:53:41;98796.88;;;15.86;89.48
69842;BME280;57138;51.326;-0.068;2023-07-29T03:56:07;98795.56;;;15.88;89.53
69842;BME280;57138;51.326;-0.068;2023-07-29T03:58:33;98766.66;;;15.78;89.59
69842;BME280;57138;51.326;-0.068;2023-07-29T04:00:59;98790.97;;;15.89;89.80
69842;BME280;57138;51.326;-0.068;2023-07-29T04:03:24;98785.28;;;15.85;89.54
69842;BME280;57138;51.326;-0.068;2023-07-29T04:05:49;98789.84;;;15.85;89.47
69842;BME280;57138;51.326;-0.068;2023-07-29T04:08:15;98799.84;;;15.89;89.99
69842;BME280;57138;51.326;-0.068;2023-07-29T04:10:40;98802.81;;;15.88;90.06
69842;BME280;57138;51.326;-0.068;2023-07-29T04:13:06;98809.31;;;15.92;90.00
69842;BME280;57138;51.326;-0.068;2023-07-29T04:15:31;98809.88;;;15.94;90.13
69842;BME280;57138;51.326;-0.068;2023-07-29T04:17:56;98800.19;;;15.93;89.78
69842;BME280;57138;51.326;-0.068;2023-07-29T04:20:22;98785.56;;;15.84;90.10
69842;BME280;57138;51.326;-0.068;2023-07-29T04:22:48;98792.03;;;15.88;90.18
69842;BME280;57138;51.326;-0.068;2023-07-29T04:25:13;98806.66;;;15.97;90.08
69842;BME280;57138;51.326;-0.068;2023-07-29T04:27:38;98793.94;;;15.92;89.74
69842;BME280;57138;51.326;-0.068;2023-07-29T04:30:04;98804.53;;;15.99;90.47
69842;BME280;57138;51.326;-0.068;2023-07-29T04:32:30;98812.63;;;15.99;90.43
69842;BME280;57138;51.326;-0.068;2023-07-29T04:34:56;98808.25;;;15.93;90.75
69842;BME280;57138;51.326;-0.068;2023-07-29T04:37:21;98790.38;;;15.81;90.47
69842;BME280;57138;51.326;-0.068;2023-07-29T04:39:46;98776.50;;;15.68;90.92
69842;BME280;57138;51.326;-0.068;2023-07-29T04:42:12;98821.75;;;15.93;90.91
69842;BME280;57138;51.326;-0.068;2023-07-29T04:44:37;98803.38;;;15.90;91.24
69842;BME280;57138;51.326;-0.068;2023-07-29T04:47:03;98815.22;;;15.89;91.35
69842;BME280;57138;51.326;-0.068;2023-07-29T04:49:28;98807.13;;;15.84;91.72
69842;BME280;57138;51.326;-0.068;2023-07-29T04:51:54;98787.06;;;15.74;91.84
69842;BME280;57138;51.326;-0.068;2023-07-29T04:54:19;98791.34;;;15.70;92.18
69842;BME280;57138;51.326;-0.068;2023-07-29T04:56:46;98805.66;;;15.76;92.84
69842;BME280;57138;51.326;-0.068;2023-07-29T04:59:11;98782.94;;;15.61;92.75
69842;BME280;57138;51.326;-0.068;2023-07-29T05:01:38;98783.22;;;15.65;92.66
69842;BME280;57138;51.326;-0.068;2023-07-29T05:04:03;98790.25;;;15.66;92.83
69842;BME280;57138;51.326;-0.068;2023-07-29T05:06:29;98787.84;;;15.70;92.73
69842;BME280;57138;51.326;-0.068;2023-07-29T05:08:57;98781.00;;;15.57;93.31
69842;BME280;57138;51.326;-0.068;2023-07-29T05:11:23;98784.75;;;15.56;93.44
69842;BME280;57138;51.326;-0.068;2023-07-29T05:13:50;98806.41;;;15.66;93.55
69842;BME280;57138;51.326;-0.068;2023-07-29T05:16:16;98781.50;;;15.54;93.90
69842;BME280;57138;51.326;-0.068;2023-07-29T05:18:41;98785.22;;;15.48;94.14
69842;BME280;57138;51.326;-0.068;2023-07-29T05:21:06;98759.25;;;15.36;94.43
69842;BME280;57138;51.326;-0.068;2023-07-29T05:23:33;98813.34;;;15.57;94.87
69842;BME280;57138;51.326;-0.068;2023-07-29T05:25:59;98803.84;;;15.49;95.19
69842;BME280;57138;51.326;-0.068;2023-07-29T05:28:24;98804.16;;;15.58;95.41
69842;BME280;57138;51.326;-0.068;2023-07-29T05:30:50;98787.06;;;15.42;95.83
69842;BME280;57138;51.326;-0.068;2023-07-29T05:33:15;98799.28;;;15.55;96.17
69842;BME280;57138;51.326;-0.068;2023-07-29T05:35:41;98797.59;;;15.49;96.27
69842;BME280;57138;51.326;-0.068;2023-07-29T05:38:06;98788.94;;;15.41;96.38
69842;BME280;57138;51.326;-0.068;2023-07-29T05:40:33;98824.63;;;15.54;96.35
69842;BME280;57138;51.326;-0.068;2023-07-29T05:42:59;98804.09;;;15.48;97.41
69842;BME280;57138;51.326;-0.068;2023-07-29T05:45:24;98785.41;;;15.41;97.22
69842;BME280;57138;51.326;-0.068;2023-07-29T05:47:50;98814.88;;;15.48;97.55
69842;BME280;57138;51.326;-0.068;2023-07-29T05:50:15;98781.25;;;15.28;97.62
69842;BME280;57138;51.326;-0.068;2023-07-29T05:52:41;98817.59;;;15.53;97.38
69842;BME280;57138;51.326;-0.068;2023-07-29T05:55:06;98801.69;;;15.51;97.06
69842;BME280;57138;51.326;-0.068;2023-07-29T05:57:32;98775.53;;;15.46;97.25
69842;BME280;57138;51.326;-0.068;2023-07-29T05:59:57;98805.78;;;15.59;97.61
69842;BME280;57138;51.326;-0.068;2023-07-29T06:02:23;98793.91;;;15.55;97.21
69842;BME280;57138;51.326;-0.068;2023-07-29T06:04:48;98793.38;;;15.58;97.49
69842;BME280;57138;51.326;-0.068;2023-07-29T06:07:14;98812.50;;;15.56;97.36
69842;BME280;57138;51.326;-0.068;2023-07-29T06:09:39;98799.28;;;15.55;96.84
69842;BME280;57138;51.326;-0.068;2023-07-29T06:12:05;98817.44;;;15.64;96.86
69842;BME280;57138;51.326;-0.068;2023-07-29T06:14:31;98820.13;;;15.64;97.09
69842;BME280;57138;51.326;-0.068;2023-07-29T06:16:56;98810.13;;;15.60;96.93
69842;BME280;57138;51.326;-0.068;2023-07-29T06:19:22;98799.78;;;15.52;96.96
69842;BME280;57138;51.326;-0.068;2023-07-29T06:21:48;98815.50;;;15.60;97.26
69842;BME280;57138;51.326;-0.068;2023-07-29T06:24:13;98805.28;;;15.62;96.84
69842;BME280;57138;51.326;-0.068;2023-07-29T06:26:39;98801.53;;;15.63;97.50
69842;BME280;57138;51.326;-0.068;2023-07-29T06:29:04;98814.22;;;15.68;97.11
69842;BME280;57138;51.326;-0.068;2023-07-29T06:31:30;98810.50;;;15.74;97.54
69842;BME280;57138;51.326;-0.068;2023-07-29T06:33:57;98799.16;;;15.72;97.66
69842;BME280;57138;51.326;-0.068;2023-07-29T06:36:23;98810.06;;;15.82;97.02
69842;BME280;57138;51.326;-0.068;2023-07-29T06:38:48;98816.88;;;15.90;97.39
69842;BME280;57138;51.326;-0.068;2023-07-29T06:41:13;98816.03;;;15.89;96.88
69842;BME280;57138;51.326;-0.068;2023-07-29T06:43:39;98825.78;;;15.95;96.54
69842;BME280;57138;51.326;-0.068;2023-07-29T06:46:05;98806.09;;;15.90;96.78
69842;BME280;57138;51.326;-0.068;2023-07-29T06:48:30;98799.09;;;15.94;96.92
69842;BME280;57138;51.326;-0.068;2023-07-29T06:50:56;98805.94;;;16.07;97.01
69842;BME280;57138;51.326;-0.068;2023-07-29T06:53:26;98803.00;;;16.13;96.91
69842;BME280;57138;51.326;-0.068;2023-07-29T06:55:51;98807.91;;;16.22;96.77
69842;BME280;57138;51.326;-0.068;2023-07-29T06:58:16;98795.50;;;16.21;96.53
69842;BME280;57138;51.326;-0.068;2023-07-29T07:00:43;98784.16;;;16.18;96.08
69842;BME280;57138;51.326;-0.068;2023-07-29T07:03:08;98816.63;;;16.39;95.74
69842;BME280;57138;51.326;-0.068;2023-07-29T07:05:33;98811.81;;;16.46;95.98
69842;BME280;57138;51.326;-0.068;2023-07-29T07:07:59;98809.72;;;16.53;96.33
69842;BME280;57138;51.326;-0.068;2023-07-29T07:10:25;98804.88;;;16.61;96.06
69842;BME280;57138;51.326;-0.068;2023-07-29T07:12:50;98791.66;;;16.59;95.69
69842;BME280;57138;51.326;-0.068;2023-07-29T07:15:16;98810.91;;;16.78;93.85
69842;BME280;57138;51.326;-0.068;2023-07-29T07:17:41;98804.13;;;16.70;94.00
69842;BME280;57138;51.326;-0.068;2023-07-29T07:20:07;98820.66;;;16.84;94.16
69842;BME280;57138;51.326;-0.068;2023-07-29T07:22:33;98803.88;;;16.82;93.98
69842;BME280;57138;51.326;-0.068;2023-07-29T07:24:58;98821.25;;;16.97;94.13
69842;BME280;57138;51.326;-0.068;2023-07-29T07:27:23;98806.66;;;16.93;93.52
69842;BME280;57138;51.326;-0.068;2023-07-29T07:29:49;98816.94;;;17.06;92.80
69842;BME280;57138;51.326;-0.068;2023-07-29T07:32:14;98799.38;;;16.98;92.84
69842;BME280;57138;51.326;-0.068;2023-07-29T07:34:40;98817.00;;;17.11;92.09
69842;BME280;57138;51.326;-0.068;2023-07-29T07:37:05;98791.53;;;16.97;92.26
69842;BME280;57138;51.326;-0.068;2023-07-29T07:39:31;98769.63;;;16.83;92.11
69842;BME280;57138;51.326;-0.068;2023-07-29T07:41:57;98815.38;;;17.20;92.44
69842;BME280;57138;51.326;-0.068;2023-07-29T07:44:23;98813.75;;;17.19;92.23
69842;BME280;57138;51.326;-0.068;2023-07-29T07:46:51;98819.16;;;17.24;91.15
69842;BME280;57138;51.326;-0.068;2023-07-29T07:49:16;98816.72;;;17.23;91.94
69842;BME280;57138;51.326;-0.068;2023-07-29T07:51:43;98812.69;;;17.20;91.35
69842;BME280;57138;51.326;-0.068;2023-07-29T07:54:09;98791.84;;;17.11;91.62
69842;BME280;57138;51.326;-0.068;2023-07-29T07:56:34;98798.91;;;17.22;91.78
69842;BME280;57138;51.326;-0.068;2023-07-29T07:59:00;98797.06;;;17.33;91.76
69842;BME280;57138;51.326;-0.068;2023-07-29T08:01:25;98805.72;;;17.50;91.01
69842;BME280;57138;51.326;-0.068;2023-07-29T08:03:51;98810.03;;;17.67;89.68
69842;BME280;57138;51.326;-0.068;2023-07-29T08:06:16;98807.31;;;17.67;89.98
69842;BME280;57138;51.326;-0.068;2023-07-29T08:08:41;98807.34;;;17.72;89.03
69842;BME280;57138;51.326;-0.068;2023-07-29T08:11:07;98778.16;;;17.53;89.11
69842;BME280;57138;51.326;-0.068;2023-07-29T08:13:32;98810.59;;;17.74;87.48
69842;BME280;57138;51.326;-0.068;2023-07-29T08:15:58;98805.47;;;17.67;86.95
69842;BME280;57138;51.326;-0.068;2023-07-29T08:18:23;98802.75;;;17.67;87.18
69842;BME280;57138;51.326;-0.068;2023-07-29T08:20:56;98806.25;;;17.63;86.03
69842;BME280;57138;51.326;-0.068;2023-07-29T08:23:28;98787.88;;;17.59;87.16
69842;BME280;57138;51.326;-0.068;2023-07-29T08:25:54;98796.50;;;17.82;86.71
69842;BME280;57138;51.326;-0.068;2023-07-29T08:28:24;98803.03;;;17.96;87.89
69842;BME280;57138;51.326;-0.068;2023-07-29T08:30:50;98787.34;;;17.99;87.15
69842;BME280;57138;51.326;-0.068;2023-07-29T08:33:16;98773.28;;;17.81;86.01
69842;BME280;57138;51.326;-0.068;2023-07-29T08:35:41;98799.78;;;17.84;86.64
69842;BME280;57138;51.326;-0.068;2023-07-29T08:38:06;98814.63;;;17.82;87.46
69842;BME280;57138;51.326;-0.068;2023-07-29T08:40:34;98814.38;;;17.63;88.37
69842;BME280;57138;51.326;-0.068;2023-07-29T08:43:04;98812.72;;;17.41;89.58
69842;BME280;57138;51.326;-0.068;2023-07-29T08:45:32;98787.78;;;17.03;90.33
69842;BME280;57138;51.326;-0.068;2023-07-29T08:48:02;98793.19;;;16.98;91.35
69842;BME280;57138;51.326;-0.068;2023-07-29T08:50:32;98804.25;;;17.01;92.63
69842;BME280;57138;51.326;-0.068;2023-07-29T08:52:58;98804.31;;;17.22;94.30
69842;BME280;57138;51.326;-0.068;2023-07-29T08:55:24;98806.75;;;17.39;95.59
69842;BME280;57138;51.326;-0.068;2023-07-29T08:57:50;98806.81;;;17.59;95.47
69842;BME280;57138;51.326;-0.068;2023-07-29T09:00:16;98800.31;;;17.76;95.75
69842;BME280;57138;51.326;-0.068;2023-07-29T09:02:42;98807.63;;;17.96;95.38
69842;BME280;57138;51.326;-0.068;2023-07-29T09:05:08;98816.53;;;18.17;95.38
69842;BME280;57138;51.326;-0.068;2023-07-29T09:07:34;98814.34;;;18.24;95.64
69842;BME280;57138;51.326;-0.068;2023-07-29T09:10:01;98829.97;;;18.48;93.91
69842;BME280;57138;51.326;-0.068;2023-07-29T09:12:27;98824.03;;;18.56;93.45
69842;BME280;57138;51.326;-0.068;2023-07-29T09:14:53;98827.22;;;18.63;92.46
69842;BME280;57138;51.326;-0.068;2023-07-29T09:17:20;98814.81;;;18.57;92.76
69842;BME280;57138;51.326;-0.068;2023-07-29T09:19:49;98839.13;;;18.78;90.37
69842;BME280;57138;51.326;-0.068;2023-07-29T09:22:20;98834.25;;;18.75;91.78
69842;BME280;57138;51.326;-0.068;2023-07-29T09:24:46;98844.50;;;18.88;91.80
69842;BME280;57138;51.326;-0.068;2023-07-29T09:27:32;98834.75;;;18.92;92.28
69842;BME280;57138;51.326;-0.068;2023-07-29T09:30:03;98847.69;;;19.11;91.82
69842;BME280;57138;51.326;-0.068;2023-07-29T09:32:30;98840.09;;;19.02;90.32
69842;BME280;57138;51.326;-0.068;2023-07-29T09:34:57;98840.13;;;18.97;89.87
69842;BME280;57138;51.326;-0.068;2023-07-29T09:37:23;98846.13;;;18.89;90.63
69842;BME280;57138;51.326;-0.068;2023-07-29T09:39:50;98840.16;;;18.92;89.57
69842;BME280;57138;51.326;-0.068;2023-07-29T09:42:20;98835.25;;;18.99;90.19
69842;BME280;57138;51.326;-0.068;2023-07-29T09:44:49;98852.53;;;19.14;89.44
69842;BME280;57138;51.326;-0.068;2023-07-29T09:47:24;98844.91;;;19.21;89.84
69842;BME280;57138;51.326;-0.068;2023-07-29T09:49:50;98843.22;;;19.30;91.43
69842;BME280;57138;51.326;-0.068;2023-07-29T09:52:20;98841.56;;;19.34;88.56
69842;BME280;57138;51.326;-0.068;2023-07-29T09:54:47;98824.28;;;19.25;87.72
69842;BME280;57138;51.326;-0.068;2023-07-29T09:57:18;98821.06;;;19.18;88.17
69842;BME280;57138;51.326;-0.068;2023-07-29T09:59:54;98842.19;;;19.21;85.44
69842;BME280;57138;51.326;-0.068;2023-07-29T10:02:19;98853.94;;;19.06;88.33
69842;BME280;57138;51.326;-0.068;2023-07-29T10:04:46;98852.63;;;18.93;86.46
69842;BME280;57138;51.326;-0.068;2023-07-29T10:07:12;98846.38;;;18.93;86.01
69842;BME280;57138;51.326;-0.068;2023-07-29T10:09:39;98849.34;;;19.01;85.80
69842;BME280;57138;51.326;-0.068;2023-07-29T10:12:11;98856.09;;;19.09;86.08
69842;BME280;57138;51.326;-0.068;2023-07-29T10:14:40;98860.63;;;19.19;82.99
69842;BME280;57138;51.326;-0.068;2023-07-29T10:17:07;98844.31;;;19.29;82.25
69842;BME280;57138;51.326;-0.068;2023-07-29T10:19:35;98850.28;;;19.31;82.04
69842;BME280;57138;51.326;-0.068;2023-07-29T10:22:03;98834.28;;;19.30;81.11
69842;BME280;57138;51.326;-0.068;2023-07-29T10:24:32;98836.66;;;19.42;81.45
69842;BME280;57138;51.326;-0.068;2023-07-29T10:27:00;98848.00;;;19.49;80.77
69842;BME280;57138;51.326;-0.068;2023-07-29T10:29:36;98847.94;;;19.59;82.52
69842;BME280;57138;51.326;-0.068;2023-07-29T10:32:04;98826.53;;;19.57;80.86
69842;BME280;57138;51.326;-0.068;2023-07-29T10:34:31;98852.13;;;19.75;80.12
69842;BME280;57138;51.326;-0.068;2023-07-29T10:37:00;98841.28;;;19.75;79.18
69842;BME280;57138;51.326;-0.068;2023-07-29T10:39:25;98846.13;;;19.89;78.11
69842;BME280;57138;51.326;-0.068;2023-07-29T10:42:01;98850.13;;;19.97;78.77
69842;BME280;57138;51.326;-0.068;2023-07-29T10:47:19;98818.31;;;20.02;77.25
69842;BME280;57138;51.326;-0.068;2023-07-29T10:49:56;98848.94;;;20.37;74.39
69842;BME280;57138;51.326;-0.068;2023-07-29T10:52:40;98853.16;;;20.48;74.85
69842;BME280;57138;51.326;-0.068;2023-07-29T10:58:13;98840.31;;;20.30;72.82
69842;BME280;57138;51.326;-0.068;2023-07-29T11:00:41;98856.72;;;20.20;73.61
69842;BME280;57138;51.326;-0.068;2023-07-29T11:03:18;98855.78;;;20.00;75.45
69842;BME280;57138;51.326;-0.068;2023-07-29T11:05:54;98862.34;;;19.94;74.83
69842;BME280;57138;51.326;-0.068;2023-07-29T11:08:26;98826.19;;;19.64;74.81
69842;BME280;57138;51.326;-0.068;2023-07-29T11:11:02;98803.88;;;19.43;74.94
69842;BME280;57138;51.326;-0.068;2023-07-29T11:13:32;98856.44;;;19.87;72.21
69842;BME280;57138;51.326;-0.068;2023-07-29T11:15:58;98802.31;;;19.66;72.19
69842;BME280;57138;51.326;-0.068;2023-07-29T11:18:32;98852.31;;;20.24;73.55
69842;BME280;57138;51.326;-0.068;2023-07-29T11:20:59;98797.09;;;20.09;70.42
69842;BME280;57138;51.326;-0.068;2023-07-29T11:23:34;98851.09;;;20.64;71.68
69842;BME280;57138;51.326;-0.068;2023-07-29T11:26:00;98829.13;;;20.61;65.59
69842;BME280;57138;51.326;-0.068;2023-07-29T11:28:27;98836.44;;;20.90;67.16
69842;BME280;57138;51.326;-0.068;2023-07-29T11:30:54;98837.84;;;21.06;65.75
69842;BME280;57138;51.326;-0.068;2023-07-29T11:33:25;98831.47;;;21.16;67.20
69842;BME280;57138;51.326;-0.068;2023-07-29T11:35:51;98853.28;;;21.30;64.66
69842;BME280;57138;51.326;-0.068;2023-07-29T11:38:18;98784.28;;;20.88;65.04
69842;BME280;57138;51.326;-0.068;2023-07-29T11:40:55;98839.63;;;21.16;67.41
69842;BME280;57138;51.326;-0.068;2023-07-29T11:43:24;98809.13;;;21.00;65.93
69842;BME280;57138;51.326;-0.068;2023-07-29T11:45:51;98837.34;;;21.04;65.08
69842;BME280;57138;51.326;-0.068;2023-07-29T11:48:16;98831.97;;;20.99;65.52
69842;BME280;57138;51.326;-0.068;2023-07-29T11:50:43;98851.31;;;21.16;66.19
69842;BME280;57138;51.326;-0.068;2023-07-29T11:53:08;98840.56;;;21.06;64.23
69842;BME280;57138;51.326;-0.068;2023-07-29T11:55:34;98847.03;;;21.10;64.31
69842;BME280;57138;51.326;-0.068;2023-07-29T11:58:01;98858.94;;;21.14;65.73
69842;BME280;57138;51.326;-0.068;2023-07-29T12:00:26;98846.06;;;21.01;65.20
69842;BME280;57138;51.326;-0.068;2023-07-29T12:02:52;98845.00;;;21.02;65.90
69842;BME280;57138;51.326;-0.068;2023-07-29T12:05:20;98867.53;;;21.22;65.74
69842;BME280;57138;51.326;-0.068;2023-07-29T12:07:46;98859.09;;;21.42;66.14
69842;BME280;57138;51.326;-0.068;2023-07-29T12:10:18;98857.22;;;21.62;65.35
69842;BME280;57138;51.326;-0.068;2023-07-29T12:12:46;98828.59;;;21.50;65.17
69842;BME280;57138;51.326;-0.068;2023-07-29T12:15:11;98848.41;;;21.70;64.02
69842;BME280;57138;51.326;-0.068;2023-07-29T12:17:40;98865.53;;;21.89;65.58
69842;BME280;57138;51.326;-0.068;2023-07-29T12:20:09;98854.69;;;21.84;65.91
69842;BME280;57138;51.326;-0.068;2023-07-29T12:22:35;98861.59;;;21.96;65.23
69842;BME280;57138;51.326;-0.068;2023-07-29T12:25:04;98867.50;;;22.17;63.37
69842;BME280;57138;51.326;-0.068;2023-07-29T12:27:30;98866.97;;;22.34;62.83
69842;BME280;57138;51.326;-0.068;2023-07-29T12:29:55;98877.88;;;22.34;62.13
69842;BME280;57138;51.326;-0.068;2023-07-29T12:32:25;98847.97;;;22.29;63.70
69842;BME280;57138;51.326;-0.068;2023-07-29T12:34:53;98863.34;;;22.38;64.22
69842;BME280;57138;51.326;-0.068;2023-07-29T12:37:18;98863.53;;;22.42;62.03
69842;BME280;57138;51.326;-0.068;2023-07-29T12:39:44;98848.72;;;22.34;61.49
69842;BME280;57138;51.326;-0.068;2023-07-29T12:42:11;98852.03;;;22.31;60.99
69842;BME280;57138;51.326;-0.068;2023-07-29T12:44:37;98864.75;;;22.36;60.24
69842;BME280;57138;51.326;-0.068;2023-07-29T12:47:04;98871.34;;;22.30;59.33
69842;BME280;57138;51.326;-0.068;2023-07-29T12:49:30;98854.00;;;22.12;58.63
69842;BME280;57138;51.326;-0.068;2023-07-29T12:51:56;98849.94;;;22.09;59.84
69842;BME280;57138;51.326;-0.068;2023-07-29T12:54:22;98841.28;;;22.07;57.93
69842;BME280;57138;51.326;-0.068;2023-07-29T12:56:48;98872.41;;;22.34;56.75
69842;BME280;57138;51.326;-0.068;2023-07-29T12:59:13;98876.22;;;22.33;58.20
69842;BME280;57138;51.326;-0.068;2023-07-29T13:01:38;98858.44;;;22.21;58.21
69842;BME280;57138;51.326;-0.068;2023-07-29T13:04:07;98849.44;;;22.40;58.94
69842;BME280;57138;51.326;-0.068;2023-07-29T13:06:32;98860.34;;;22.68;58.22